sensor_id;sensor_type;location;lat;lon;timestamp;temperature;humidity
31809;DHT22;18379;48.208;-1.518;2023-04-24T00:03:32;10.10;99.90
31809;DHT22;18379;48.208;-1.518;2023-04-24T00:08:36;10.10;99.90
31809;DHT22;18379;48.208;-1.518;2023-04-24T00:13:37;10.20;99.90
31809;DHT22;18379;48.208;-1.518;2023-04-24T00:18:38;10.10;99.90
31809;DHT22;18379;48.208;-1.518;2023-04-24T00:23:39;10.00;99.90
31809;DHT22;18379;48.208;-1.518;2023-04-24T00:28:40;10.10;99.90
31809;DHT22;18379;48.208;-1.518;2023-04-24T00:33:41;9.90;99.90
31809;DHT22;18379;48.208;-1.518;2023-04-24T00:38:41;9.80;99.90
31809;DHT22;18379;48.208;-1.518;2023-04-24T00:43:42;9.80;99.90
31809;DHT22;18379;48.208;-1.518;2023-04-24T00:48:43;9.90;99.90
31809;DHT22;18379;48.208;-1.518;2023-04-24T00:53:44;10.00;99.90
31809;DHT22;18379;48.208;-1.518;2023-04-24T00:58:45;10.00;99.90
31809;DHT22;18379;48.208;-1.518;2023-04-24T01:03:46;10.00;99.90
31809;DHT22;18379;48.208;-1.518;2023-04-24T01:08:47;10.00;99.90
31809;DHT22;18379;48.208;-1.518;2023-04-24T01:13:49;10.10;99.90
31809;DHT22;18379;48.208;-1.518;2023-04-24T01:18:49;10.00;99.90
31809;DHT22;18379;48.208;-1.518;2023-04-24T01:23:50;9.90;99.90
31809;DHT22;18379;48.208;-1.518;2023-04-24T01:28:51;9.80;99.90
31809;DHT22;18379;48.208;-1.518;2023-04-24T01:33:54;9.90;99.90
31809;DHT22;18379;48.208;-1.518;2023-04-24T01:38:55;9.90;99.90
31809;DHT22;18379;48.208;-1.518;2023-04-24T01:43:57;9.90;99.90
31809;DHT22;18379;48.208;-1.518;2023-04-24T01:49:00;10.00;99.90
31809;DHT22;18379;48.208;-1.518;2023-04-24T01:54:00;9.90;99.90
31809;DHT22;18379;48.208;-1.518;2023-04-24T01:59:03;9.90;99.90
31809;DHT22;18379;48.208;-1.518;2023-04-24T02:04:07;9.90;99.90
31809;DHT22;18379;48.208;-1.518;2023-04-24T02:09:08;9.90;99.90
31809;DHT22;18379;48.208;-1.518;2023-04-24T02:14:09;9.90;99.90
31809;DHT22;18379;48.208;-1.518;2023-04-24T02:19:10;9.90;99.90
31809;DHT22;18379;48.208;-1.518;2023-04-24T02:24:11;9.80;99.90
31809;DHT22;18379;48.208;-1.518;2023-04-24T02:29:11;9.80;99.90
31809;DHT22;18379;48.208;-1.518;2023-04-24T02:34:12;9.80;99.90
31809;DHT22;18379;48.208;-1.518;2023-04-24T02:39:13;9.90;99.90
31809;DHT22;18379;48.208;-1.518;2023-04-24T02:44:14;9.80;99.90
31809;DHT22;18379;48.208;-1.518;2023-04-24T02:49:15;9.80;99.90
31809;DHT22;18379;48.208;-1.518;2023-04-24T02:54:16;9.70;99.90
31809;DHT22;18379;48.208;-1.518;2023-04-24T02:59:16;9.80;99.90
31809;DHT22;18379;48.208;-1.518;2023-04-24T03:04:17;9.80;99.90
31809;DHT22;18379;48.208;-1.518;2023-04-24T03:09:21;9.80;99.90
31809;DHT22;18379;48.208;-1.518;2023-04-24T03:14:22;9.80;99.90
31809;DHT22;18379;48.208;-1.518;2023-04-24T03:19:22;9.70;99.90
31809;DHT22;18379;48.208;-1.518;2023-04-24T03:24:23;9.70;99.90
31809;DHT22;18379;48.208;-1.518;2023-04-24T03:29:25;9.70;99.90
31809;DHT22;18379;48.208;-1.518;2023-04-24T03:34:25;9.60;99.90
31809;DHT22;18379;48.208;-1.518;2023-04-24T03:39:26;9.60;99.90
31809;DHT22;18379;48.208;-1.518;2023-04-24T03:44:27;9.60;99.90
31809;DHT22;18379;48.208;-1.518;2023-04-24T03:49:28;9.70;99.90
31809;DHT22;18379;48.208;-1.518;2023-04-24T03:54:29;9.70;99.90
31809;DHT22;18379;48.208;-1.518;2023-04-24T03:59:30;9.80;99.90
31809;DHT22;18379;48.208;-1.518;2023-04-24T04:04:31;9.70;99.90
31809;DHT22;18379;48.208;-1.518;2023-04-24T04:09:32;9.70;99.90
31809;DHT22;18379;48.208;-1.518;2023-04-24T04:14:33;9.70;99.90
31809;DHT22;18379;48.208;-1.518;2023-04-24T04:19:34;9.70;99.90
31809;DHT22;18379;48.208;-1.518;2023-04-24T04:24:35;9.70;99.90
31809;DHT22;18379;48.208;-1.518;2023-04-24T04:29:39;9.60;99.90
31809;DHT22;18379;48.208;-1.518;2023-04-24T04:34:40;9.60;99.90
31809;DHT22;18379;48.208;-1.518;2023-04-24T04:39:41;9.60;99.90
31809;DHT22;18379;48.208;-1.518;2023-04-24T04:44:41;9.70;99.90
31809;DHT22;18379;48.208;-1.518;2023-04-24T04:49:43;9.60;99.90
31809;DHT22;18379;48.208;-1.518;2023-04-24T04:54:44;9.70;99.90
31809;DHT22;18379;48.208;-1.518;2023-04-24T04:59:44;9.70;99.90
31809;DHT22;18379;48.208;-1.518;2023-04-24T05:04:45;9.60;99.90
31809;DHT22;18379;48.208;-1.518;2023-04-24T05:09:46;9.60;99.90
31809;DHT22;18379;48.208;-1.518;2023-04-24T05:14:47;9.70;99.90
31809;DHT22;18379;48.208;-1.518;2023-04-24T05:19:48;9.60;99.90
31809;DHT22;18379;48.208;-1.518;2023-04-24T05:24:48;9.70;99.90
31809;DHT22;18379;48.208;-1.518;2023-04-24T05:29:49;9.70;99.90
31809;DHT22;18379;48.208;-1.518;2023-04-24T05:34:50;9.70;99.90
31809;DHT22;18379;48.208;-1.518;2023-04-24T05:39:50;9.70;99.90
31809;DHT22;18379;48.208;-1.518;2023-04-24T05:44:51;9.80;99.90
31809;DHT22;18379;48.208;-1.518;2023-04-24T05:49:54;9.80;99.90
31809;DHT22;18379;48.208;-1.518;2023-04-24T05:54:55;9.90;99.90
31809;DHT22;18379;48.208;-1.518;2023-04-24T05:59:56;9.90;99.90
31809;DHT22;18379;48.208;-1.518;2023-04-24T06:04:56;9.80;99.90
31809;DHT22;18379;48.208;-1.518;2023-04-24T06:09:57;9.90;99.90
31809;DHT22;18379;48.208;-1.518;2023-04-24T06:14:58;9.90;99.90
31809;DHT22;18379;48.208;-1.518;2023-04-24T06:19:59;10.10;99.90
31809;DHT22;18379;48.208;-1.518;2023-04-24T06:25:00;10.00;99.90
31809;DHT22;18379;48.208;-1.518;2023-04-24T06:30:02;9.80;99.90
31809;DHT22;18379;48.208;-1.518;2023-04-24T06:35:03;9.80;99.90
31809;DHT22;18379;48.208;-1.518;2023-04-24T06:40:09;9.80;99.90
31809;DHT22;18379;48.208;-1.518;2023-04-24T06:45:10;9.70;99.90
31809;DHT22;18379;48.208;-1.518;2023-04-24T06:50:13;9.80;99.90
31809;DHT22;18379;48.208;-1.518;2023-04-24T06:55:13;9.90;99.90
31809;DHT22;18379;48.208;-1.518;2023-04-24T07:00:16;10.10;99.90
31809;DHT22;18379;48.208;-1.518;2023-04-24T07:05:17;10.10;99.90
31809;DHT22;18379;48.208;-1.518;2023-04-24T07:10:20;10.30;99.90
31809;DHT22;18379;48.208;-1.518;2023-04-24T07:15:21;10.40;99.90
31809;DHT22;18379;48.208;-1.518;2023-04-24T07:20:22;10.50;99.90
31809;DHT22;18379;48.208;-1.518;2023-04-24T07:25:23;10.40;99.90
31809;DHT22;18379;48.208;-1.518;2023-04-24T07:30:24;10.50;99.90
31809;DHT22;18379;48.208;-1.518;2023-04-24T07:35:25;10.60;99.90
31809;DHT22;18379;48.208;-1.518;2023-04-24T07:40:26;10.70;99.90
31809;DHT22;18379;48.208;-1.518;2023-04-24T07:45:27;11.00;99.90
31809;DHT22;18379;48.208;-1.518;2023-04-24T07:50:28;11.30;99.90
31809;DHT22;18379;48.208;-1.518;2023-04-24T07:55:29;11.20;99.90
31809;DHT22;18379;48.208;-1.518;2023-04-24T08:00:30;11.30;99.90
31809;DHT22;18379;48.208;-1.518;2023-04-24T08:05:31;11.50;99.90
31809;DHT22;18379;48.208;-1.518;2023-04-24T08:10:33;11.40;99.90
31809;DHT22;18379;48.208;-1.518;2023-04-24T08:15:34;11.30;99.90
31809;DHT22;18379;48.208;-1.518;2023-04-24T08:20:39;11.50;99.90
31809;DHT22;18379;48.208;-1.518;2023-04-24T08:25:40;11.80;99.90
31809;DHT22;18379;48.208;-1.518;2023-04-24T08:30:44;11.70;99.90
31809;DHT22;18379;48.208;-1.518;2023-04-24T08:35:44;11.80;99.90
31809;DHT22;18379;48.208;-1.518;2023-04-24T08:40:46;11.70;99.90
31809;DHT22;18379;48.208;-1.518;2023-04-24T08:45:50;11.60;99.90
31809;DHT22;18379;48.208;-1.518;2023-04-24T08:50:51;11.90;99.90
31809;DHT22;18379;48.208;-1.518;2023-04-24T08:55:54;12.10;99.90
31809;DHT22;18379;48.208;-1.518;2023-04-24T09:00:55;12.50;99.90
31809;DHT22;18379;48.208;-1.518;2023-04-24T09:05:57;12.90;99.90
31809;DHT22;18379;48.208;-1.518;2023-04-24T09:10:58;13.10;99.90
31809;DHT22;18379;48.208;-1.518;2023-04-24T09:15:59;13.00;99.90
31809;DHT22;18379;48.208;-1.518;2023-04-24T09:21:07;12.80;99.90
31809;DHT22;18379;48.208;-1.518;2023-04-24T09:26:09;12.80;99.90
31809;DHT22;18379;48.208;-1.518;2023-04-24T09:31:19;13.20;99.90
31809;DHT22;18379;48.208;-1.518;2023-04-24T09:36:35;12.60;99.90
31809;DHT22;18379;48.208;-1.518;2023-04-24T09:46:51;13.30;99.90
31809;DHT22;18379;48.208;-1.518;2023-04-24T09:52:05;13.60;99.90
31809;DHT22;18379;48.208;-1.518;2023-04-24T09:57:09;13.70;99.90
31809;DHT22;18379;48.208;-1.518;2023-04-24T10:02:17;13.40;99.90
31809;DHT22;18379;48.208;-1.518;2023-04-24T10:07:19;13.30;99.90
31809;DHT22;18379;48.208;-1.518;2023-04-24T10:12:21;13.80;99.90
31809;DHT22;18379;48.208;-1.518;2023-04-24T10:17:22;14.20;99.90
31809;DHT22;18379;48.208;-1.518;2023-04-24T10:22:25;13.70;99.90
31809;DHT22;18379;48.208;-1.518;2023-04-24T10:27:27;13.70;99.90
31809;DHT22;18379;48.208;-1.518;2023-04-24T10:32:29;14.20;99.90
31809;DHT22;18379;48.208;-1.518;2023-04-24T10:37:36;14.80;99.90
31809;DHT22;18379;48.208;-1.518;2023-04-24T10:42:41;14.60;99.90
31809;DHT22;18379;48.208;-1.518;2023-04-24T10:47:50;14.20;99.90
31809;DHT22;18379;48.208;-1.518;2023-04-24T10:52:51;14.70;99.90
31809;DHT22;18379;48.208;-1.518;2023-04-24T10:58:03;15.00;99.90
31809;DHT22;18379;48.208;-1.518;2023-04-24T11:03:24;14.60;99.90
31809;DHT22;18379;48.208;-1.518;2023-04-24T11:29:48;15.40;99.90
31809;DHT22;18379;48.208;-1.518;2023-04-24T11:34:52;15.60;99.90
31809;DHT22;18379;48.208;-1.518;2023-04-24T11:39:55;15.50;99.90
31809;DHT22;18379;48.208;-1.518;2023-04-24T11:44:56;15.50;99.90
31809;DHT22;18379;48.208;-1.518;2023-04-24T11:49:58;15.20;99.90
31809;DHT22;18379;48.208;-1.518;2023-04-24T11:54:59;15.10;99.90
31809;DHT22;18379;48.208;-1.518;2023-04-24T12:00:02;14.90;99.90
31809;DHT22;18379;48.208;-1.518;2023-04-24T12:05:08;15.10;99.90
31809;DHT22;18379;48.208;-1.518;2023-04-24T12:10:09;15.00;99.90
31809;DHT22;18379;48.208;-1.518;2023-04-24T12:15:17;14.90;99.90
31809;DHT22;18379;48.208;-1.518;2023-04-24T12:20:27;15.30;99.90
31809;DHT22;18379;48.208;-1.518;2023-04-24T12:25:29;16.00;99.90
31809;DHT22;18379;48.208;-1.518;2023-04-24T12:30:39;15.70;99.90
31809;DHT22;18379;48.208;-1.518;2023-04-24T12:36:03;15.50;99.90
31809;DHT22;18379;48.208;-1.518;2023-04-24T12:41:12;16.10;99.90
31809;DHT22;18379;48.208;-1.518;2023-04-24T12:46:14;16.00;99.90
31809;DHT22;18379;48.208;-1.518;2023-04-24T12:51:15;15.40;99.90
31809;DHT22;18379;48.208;-1.518;2023-04-24T12:56:15;14.90;99.90
31809;DHT22;18379;48.208;-1.518;2023-04-24T13:01:17;14.70;99.90
31809;DHT22;18379;48.208;-1.518;2023-04-24T13:06:18;15.40;99.90
31809;DHT22;18379;48.208;-1.518;2023-04-24T13:11:19;16.70;99.90
31809;DHT22;18379;48.208;-1.518;2023-04-24T13:16:20;17.50;99.90
31809;DHT22;18379;48.208;-1.518;2023-04-24T13:21:21;17.30;99.90
31809;DHT22;18379;48.208;-1.518;2023-04-24T13:26:21;16.80;99.90
31809;DHT22;18379;48.208;-1.518;2023-04-24T13:31:22;17.30;99.90
31809;DHT22;18379;48.208;-1.518;2023-04-24T13:36:23;17.30;99.90
31809;DHT22;18379;48.208;-1.518;2023-04-24T13:41:24;17.50;99.90
31809;DHT22;18379;48.208;-1.518;2023-04-24T13:46:25;17.10;99.90
31809;DHT22;18379;48.208;-1.518;2023-04-24T13:51:26;17.10;99.90
31809;DHT22;18379;48.208;-1.518;2023-04-24T13:56:29;16.70;99.90
31809;DHT22;18379;48.208;-1.518;2023-04-24T14:01:31;16.40;99.90
31809;DHT22;18379;48.208;-1.518;2023-04-24T14:06:32;16.50;99.90
31809;DHT22;18379;48.208;-1.518;2023-04-24T14:11:33;17.00;99.90
31809;DHT22;18379;48.208;-1.518;2023-04-24T14:16:34;16.90;99.90
31809;DHT22;18379;48.208;-1.518;2023-04-24T14:21:37;16.50;99.90
31809;DHT22;18379;48.208;-1.518;2023-04-24T14:26:38;16.30;99.90
31809;DHT22;18379;48.208;-1.518;2023-04-24T14:31:42;16.10;99.90
31809;DHT22;18379;48.208;-1.518;2023-04-24T14:36:43;15.80;99.90
31809;DHT22;18379;48.208;-1.518;2023-04-24T14:41:44;15.60;99.90
31809;DHT22;18379;48.208;-1.518;2023-04-24T14:46:45;15.40;99.90
31809;DHT22;18379;48.208;-1.518;2023-04-24T14:51:46;15.20;99.90
31809;DHT22;18379;48.208;-1.518;2023-04-24T14:56:47;14.80;99.90
31809;DHT22;18379;48.208;-1.518;2023-04-24T15:01:48;14.40;99.90
31809;DHT22;18379;48.208;-1.518;2023-04-24T15:06:48;15.90;99.90
31809;DHT22;18379;48.208;-1.518;2023-04-24T15:11:50;17.60;99.90
31809;DHT22;18379;48.208;-1.518;2023-04-24T15:16:51;18.00;99.90
31809;DHT22;18379;48.208;-1.518;2023-04-24T15:21:52;17.70;99.90
31809;DHT22;18379;48.208;-1.518;2023-04-24T15:26:54;18.40;99.90
31809;DHT22;18379;48.208;-1.518;2023-04-24T15:31:55;17.80;99.90
31809;DHT22;18379;48.208;-1.518;2023-04-24T15:36:56;17.50;99.90
31809;DHT22;18379;48.208;-1.518;2023-04-24T15:41:57;16.60;99.90
31809;DHT22;18379;48.208;-1.518;2023-04-24T15:47:00;17.70;99.90
31809;DHT22;18379;48.208;-1.518;2023-04-24T15:52:01;19.20;99.90
31809;DHT22;18379;48.208;-1.518;2023-04-24T15:57:02;18.00;99.90
31809;DHT22;18379;48.208;-1.518;2023-04-24T16:02:03;16.60;99.90
31809;DHT22;18379;48.208;-1.518;2023-04-24T16:07:04;15.90;99.90
31809;DHT22;18379;48.208;-1.518;2023-04-24T16:12:05;15.40;99.90
31809;DHT22;18379;48.208;-1.518;2023-04-24T16:17:06;15.20;99.90
31809;DHT22;18379;48.208;-1.518;2023-04-24T16:22:07;15.10;99.90
31809;DHT22;18379;48.208;-1.518;2023-04-24T16:27:07;15.20;99.90
31809;DHT22;18379;48.208;-1.518;2023-04-24T16:32:09;14.30;99.90
31809;DHT22;18379;48.208;-1.518;2023-04-24T16:37:11;13.60;99.90
31809;DHT22;18379;48.208;-1.518;2023-04-24T16:42:12;13.40;99.90
31809;DHT22;18379;48.208;-1.518;2023-04-24T16:47:13;13.00;99.90
31809;DHT22;18379;48.208;-1.518;2023-04-24T16:52:14;13.10;99.90
31809;DHT22;18379;48.208;-1.518;2023-04-24T16:57:15;13.70;99.90
31809;DHT22;18379;48.208;-1.518;2023-04-24T17:02:16;13.50;99.90
31809;DHT22;18379;48.208;-1.518;2023-04-24T17:07:17;13.30;99.90
31809;DHT22;18379;48.208;-1.518;2023-04-24T17:12:18;13.50;99.90
31809;DHT22;18379;48.208;-1.518;2023-04-24T17:17:19;13.70;99.90
31809;DHT22;18379;48.208;-1.518;2023-04-24T17:22:22;13.90;99.90
31809;DHT22;18379;48.208;-1.518;2023-04-24T17:27:23;13.80;99.90
31809;DHT22;18379;48.208;-1.518;2023-04-24T17:32:24;13.60;99.90
31809;DHT22;18379;48.208;-1.518;2023-04-24T17:37:25;13.40;99.90
31809;DHT22;18379;48.208;-1.518;2023-04-24T17:42:26;13.30;99.90
31809;DHT22;18379;48.208;-1.518;2023-04-24T17:47:27;13.30;99.90
31809;DHT22;18379;48.208;-1.518;2023-04-24T17:52:30;13.30;99.90
31809;DHT22;18379;48.208;-1.518;2023-04-24T17:57:30;13.10;99.90
31809;DHT22;18379;48.208;-1.518;2023-04-24T18:02:31;13.10;99.90
31809;DHT22;18379;48.208;-1.518;2023-04-24T18:07:33;13.00;99.90
31809;DHT22;18379;48.208;-1.518;2023-04-24T18:12:33;12.80;99.90
31809;DHT22;18379;48.208;-1.518;2023-04-24T18:17:34;12.90;99.90
31809;DHT22;18379;48.208;-1.518;2023-04-24T18:22:35;12.70;99.90
31809;DHT22;18379;48.208;-1.518;2023-04-24T18:27:37;12.60;99.90
31809;DHT22;18379;48.208;-1.518;2023-04-24T18:32:40;12.50;99.90
31809;DHT22;18379;48.208;-1.518;2023-04-24T18:37:41;12.10;99.90
31809;DHT22;18379;48.208;-1.518;2023-04-24T18:42:43;11.00;99.90
31809;DHT22;18379;48.208;-1.518;2023-04-24T18:47:43;10.60;99.90
31809;DHT22;18379;48.208;-1.518;2023-04-24T18:52:44;10.60;99.90
31809;DHT22;18379;48.208;-1.518;2023-04-24T18:57:45;10.60;99.90
31809;DHT22;18379;48.208;-1.518;2023-04-24T19:02:46;10.50;99.90
31809;DHT22;18379;48.208;-1.518;2023-04-24T19:07:46;10.50;99.90
31809;DHT22;18379;48.208;-1.518;2023-04-24T19:12:48;10.60;99.90
31809;DHT22;18379;48.208;-1.518;2023-04-24T19:17:55;10.70;99.90
31809;DHT22;18379;48.208;-1.518;2023-04-24T19:22:56;10.80;99.90
31809;DHT22;18379;48.208;-1.518;2023-04-24T19:27:57;10.80;99.90
31809;DHT22;18379;48.208;-1.518;2023-04-24T19:32:58;10.70;99.90
31809;DHT22;18379;48.208;-1.518;2023-04-24T19:38:07;10.70;99.90
31809;DHT22;18379;48.208;-1.518;2023-04-24T19:43:08;10.70;99.90
31809;DHT22;18379;48.208;-1.518;2023-04-24T19:48:27;10.80;99.90
31809;DHT22;18379;48.208;-1.518;2023-04-24T19:53:41;10.80;99.90
31809;DHT22;18379;48.208;-1.518;2023-04-24T19:58:43;10.80;99.90
31809;DHT22;18379;48.208;-1.518;2023-04-24T20:03:56;10.80;99.90
31809;DHT22;18379;48.208;-1.518;2023-04-24T20:09:17;10.80;99.90
31809;DHT22;18379;48.208;-1.518;2023-04-24T20:14:22;10.90;99.90
31809;DHT22;18379;48.208;-1.518;2023-04-24T20:19:22;11.00;99.90
31809;DHT22;18379;48.208;-1.518;2023-04-24T20:24:23;11.10;99.90
31809;DHT22;18379;48.208;-1.518;2023-04-24T20:29:24;11.10;99.90
31809;DHT22;18379;48.208;-1.518;2023-04-24T20:34:29;11.10;99.90
31809;DHT22;18379;48.208;-1.518;2023-04-24T20:39:33;10.90;99.90
31809;DHT22;18379;48.208;-1.518;2023-04-24T20:44:34;10.70;99.90
31809;DHT22;18379;48.208;-1.518;2023-04-24T20:49:35;10.70;99.90
31809;DHT22;18379;48.208;-1.518;2023-04-24T20:54:35;10.70;99.90
31809;DHT22;18379;48.208;-1.518;2023-04-24T20:59:37;10.60;99.90
31809;DHT22;18379;48.208;-1.518;2023-04-24T21:04:38;10.60;99.90
31809;DHT22;18379;48.208;-1.518;2023-04-24T21:09:39;10.60;99.90
31809;DHT22;18379;48.208;-1.518;2023-04-24T21:14:40;10.60;99.90
31809;DHT22;18379;48.208;-1.518;2023-04-24T21:19:41;10.60;99.90
31809;DHT22;18379;48.208;-1.518;2023-04-24T21:24:41;10.50;99.90
31809;DHT22;18379;48.208;-1.518;2023-04-24T21:29:42;10.30;99.90
31809;DHT22;18379;48.208;-1.518;2023-04-24T21:34:43;10.20;99.90
31809;DHT22;18379;48.208;-1.518;2023-04-24T21:39:44;10.10;99.90
31809;DHT22;18379;48.208;-1.518;2023-04-24T21:44:45;10.00;99.90
31809;DHT22;18379;48.208;-1.518;2023-04-24T21:49:45;9.90;99.90
31809;DHT22;18379;48.208;-1.518;2023-04-24T21:54:46;9.80;99.90
31809;DHT22;18379;48.208;-1.518;2023-04-24T21:59:47;9.80;99.90
31809;DHT22;18379;48.208;-1.518;2023-04-24T22:04:48;9.70;99.90
31809;DHT22;18379;48.208;-1.518;2023-04-24T22:09:49;9.60;99.90
31809;DHT22;18379;48.208;-1.518;2023-04-24T22:14:50;9.50;99.90
31809;DHT22;18379;48.208;-1.518;2023-04-24T22:19:51;9.40;99.90
31809;DHT22;18379;48.208;-1.518;2023-04-24T22:24:52;9.30;99.90
31809;DHT22;18379;48.208;-1.518;2023-04-24T22:29:53;9.20;99.90
31809;DHT22;18379;48.208;-1.518;2023-04-24T22:34:53;9.10;99.90
31809;DHT22;18379;48.208;-1.518;2023-04-24T22:39:54;9.00;99.90
31809;DHT22;18379;48.208;-1.518;2023-04-24T22:44:55;8.90;99.90
31809;DHT22;18379;48.208;-1.518;2023-04-24T22:49:56;8.90;99.90
31809;DHT22;18379;48.208;-1.518;2023-04-24T22:54:57;8.80;99.90
31809;DHT22;18379;48.208;-1.518;2023-04-24T22:59:58;8.70;99.90
31809;DHT22;18379;48.208;-1.518;2023-04-24T23:04:59;8.60;99.90
31809;DHT22;18379;48.208;-1.518;2023-04-24T23:10:00;8.50;99.90
31809;DHT22;18379;48.208;-1.518;2023-04-24T23:15:01;8.40;99.90
31809;DHT22;18379;48.208;-1.518;2023-04-24T23:20:03;8.40;99.90
31809;DHT22;18379;48.208;-1.518;2023-04-24T23:25:04;8.30;99.90
31809;DHT22;18379;48.208;-1.518;2023-04-24T23:30:05;8.20;99.90
31809;DHT22;18379;48.208;-1.518;2023-04-24T23:35:07;8.10;99.90
31809;DHT22;18379;48.208;-1.518;2023-04-24T23:40:09;8.10;99.90
31809;DHT22;18379;48.208;-1.518;2023-04-24T23:45:10;7.90;99.90
31809;DHT22;18379;48.208;-1.518;2023-04-24T23:50:11;7.80;99.90
31809;DHT22;18379;48.208;-1.518;2023-04-24T23:55:12;7.80;99.90
